sensor_id;sensor_type;location;lat;lon;timestamp;P1;durP1;ratioP1;P2;durP2;ratioP2
2928;SDS011;1474;51.460;7.150;2023-04-25T00:02:02;4.07;;;2.28;;
2928;SDS011;1474;51.460;7.150;2023-04-25T00:04:28;5.65;;;2.72;;
2928;SDS011;1474;51.460;7.150;2023-04-25T00:06:58;5.00;;;3.40;;
2928;SDS011;1474;51.460;7.150;2023-04-25T00:09:26;7.20;;;3.00;;
2928;SDS011;1474;51.460;7.150;2023-04-25T00:11:52;8.70;;;2.85;;
2928;SDS011;1474;51.460;7.150;2023-04-25T00:14:18;12.20;;;3.65;;
2928;SDS011;1474;51.460;7.150;2023-04-25T00:16:44;8.40;;;2.50;;
2928;SDS011;1474;51.460;7.150;2023-04-25T00:19:09;5.93;;;3.15;;
2928;SDS011;1474;51.460;7.150;2023-04-25T00:21:36;9.68;;;3.15;;
2928;SDS011;1474;51.460;7.150;2023-04-25T00:24:05;7.80;;;2.78;;
2928;SDS011;1474;51.460;7.150;2023-04-25T00:26:32;9.02;;;3.22;;
2928;SDS011;1474;51.460;7.150;2023-04-25T00:28:59;10.35;;;3.50;;
2928;SDS011;1474;51.460;7.150;2023-04-25T00:31:25;7.38;;;3.13;;
2928;SDS011;1474;51.460;7.150;2023-04-25T00:33:51;7.20;;;3.40;;
2928;SDS011;1474;51.460;7.150;2023-04-25T00:36:16;7.72;;;3.95;;
2928;SDS011;1474;51.460;7.150;2023-04-25T00:38:43;12.60;;;3.35;;
2928;SDS011;1474;51.460;7.150;2023-04-25T00:41:08;5.70;;;3.13;;
2928;SDS011;1474;51.460;7.150;2023-04-25T00:43:34;9.20;;;3.67;;
2928;SDS011;1474;51.460;7.150;2023-04-25T00:46:02;7.45;;;3.88;;
2928;SDS011;1474;51.460;7.150;2023-04-25T00:48:27;5.85;;;3.38;;
2928;SDS011;1474;51.460;7.150;2023-04-25T00:50:54;9.45;;;3.95;;
2928;SDS011;1474;51.460;7.150;2023-04-25T00:53:22;11.07;;;2.97;;
2928;SDS011;1474;51.460;7.150;2023-04-25T00:55:48;7.13;;;3.55;;
2928;SDS011;1474;51.460;7.150;2023-04-25T00:58:19;6.32;;;3.53;;
2928;SDS011;1474;51.460;7.150;2023-04-25T01:00:46;5.22;;;3.20;;
2928;SDS011;1474;51.460;7.150;2023-04-25T01:03:16;5.38;;;3.78;;
2928;SDS011;1474;51.460;7.150;2023-04-25T01:05:44;6.03;;;2.72;;
2928;SDS011;1474;51.460;7.150;2023-04-25T01:08:10;8.63;;;3.80;;
2928;SDS011;1474;51.460;7.150;2023-04-25T01:10:36;3.95;;;2.67;;
2928;SDS011;1474;51.460;7.150;2023-04-25T01:13:02;8.88;;;3.42;;
2928;SDS011;1474;51.460;7.150;2023-04-25T01:15:28;6.00;;;3.83;;
2928;SDS011;1474;51.460;7.150;2023-04-25T01:17:54;6.25;;;2.90;;
2928;SDS011;1474;51.460;7.150;2023-04-25T01:20:21;7.85;;;3.95;;
2928;SDS011;1474;51.460;7.150;2023-04-25T01:22:48;6.25;;;4.38;;
2928;SDS011;1474;51.460;7.150;2023-04-25T01:25:14;9.25;;;3.80;;
2928;SDS011;1474;51.460;7.150;2023-04-25T01:27:40;7.15;;;3.88;;
2928;SDS011;1474;51.460;7.150;2023-04-25T01:30:06;10.73;;;3.50;;
2928;SDS011;1474;51.460;7.150;2023-04-25T01:32:32;10.20;;;5.22;;
2928;SDS011;1474;51.460;7.150;2023-04-25T01:35:09;9.60;;;3.92;;
2928;SDS011;1474;51.460;7.150;2023-04-25T01:40:08;7.80;;;4.18;;
2928;SDS011;1474;51.460;7.150;2023-04-25T01:42:36;7.13;;;4.70;;
2928;SDS011;1474;51.460;7.150;2023-04-25T01:45:03;11.82;;;4.57;;
2928;SDS011;1474;51.460;7.150;2023-04-25T01:47:29;9.10;;;4.25;;
2928;SDS011;1474;51.460;7.150;2023-04-25T01:49:55;9.55;;;4.80;;
2928;SDS011;1474;51.460;7.150;2023-04-25T01:52:20;12.32;;;4.85;;
2928;SDS011;1474;51.460;7.150;2023-04-25T01:54:46;6.53;;;4.15;;
2928;SDS011;1474;51.460;7.150;2023-04-25T01:57:13;7.07;;;4.30;;
2928;SDS011;1474;51.460;7.150;2023-04-25T01:59:39;13.45;;;4.93;;
2928;SDS011;1474;51.460;7.150;2023-04-25T02:02:07;9.70;;;4.82;;
2928;SDS011;1474;51.460;7.150;2023-04-25T02:04:32;7.28;;;4.32;;
2928;SDS011;1474;51.460;7.150;2023-04-25T02:06:58;7.57;;;4.05;;
2928;SDS011;1474;51.460;7.150;2023-04-25T02:09:24;11.38;;;4.10;;
2928;SDS011;1474;51.460;7.150;2023-04-25T02:11:49;9.75;;;4.75;;
2928;SDS011;1474;51.460;7.150;2023-04-25T02:14:15;9.93;;;4.45;;
2928;SDS011;1474;51.460;7.150;2023-04-25T02:16:41;9.52;;;4.25;;
2928;SDS011;1474;51.460;7.150;2023-04-25T02:19:08;8.65;;;3.72;;
2928;SDS011;1474;51.460;7.150;2023-04-25T02:21:35;4.53;;;3.42;;
2928;SDS011;1474;51.460;7.150;2023-04-25T02:24:01;4.50;;;3.22;;
2928;SDS011;1474;51.460;7.150;2023-04-25T02:26:27;7.47;;;3.63;;
2928;SDS011;1474;51.460;7.150;2023-04-25T02:28:53;9.35;;;3.13;;
2928;SDS011;1474;51.460;7.150;2023-04-25T02:31:19;8.38;;;4.63;;
2928;SDS011;1474;51.460;7.150;2023-04-25T02:33:45;11.52;;;3.53;;
2928;SDS011;1474;51.460;7.150;2023-04-25T02:36:11;16.42;;;3.97;;
2928;SDS011;1474;51.460;7.150;2023-04-25T02:38:36;7.00;;;3.70;;
2928;SDS011;1474;51.460;7.150;2023-04-25T02:41:02;8.23;;;4.40;;
2928;SDS011;1474;51.460;7.150;2023-04-25T02:43:28;10.23;;;3.92;;
2928;SDS011;1474;51.460;7.150;2023-04-25T02:45:53;10.48;;;3.90;;
2928;SDS011;1474;51.460;7.150;2023-04-25T02:48:19;8.68;;;3.88;;
2928;SDS011;1474;51.460;7.150;2023-04-25T02:50:45;6.90;;;3.25;;
2928;SDS011;1474;51.460;7.150;2023-04-25T02:53:11;6.63;;;3.47;;
2928;SDS011;1474;51.460;7.150;2023-04-25T02:55:36;7.72;;;3.90;;
2928;SDS011;1474;51.460;7.150;2023-04-25T02:58:02;10.05;;;3.60;;
2928;SDS011;1474;51.460;7.150;2023-04-25T03:00:28;9.90;;;3.67;;
2928;SDS011;1474;51.460;7.150;2023-04-25T03:02:53;5.03;;;3.20;;
2928;SDS011;1474;51.460;7.150;2023-04-25T03:05:19;9.02;;;3.33;;
2928;SDS011;1474;51.460;7.150;2023-04-25T03:07:44;6.60;;;3.63;;
2928;SDS011;1474;51.460;7.150;2023-04-25T03:10:11;5.47;;;3.00;;
2928;SDS011;1474;51.460;7.150;2023-04-25T03:12:36;7.85;;;3.38;;
2928;SDS011;1474;51.460;7.150;2023-04-25T03:15:02;10.88;;;3.63;;
2928;SDS011;1474;51.460;7.150;2023-04-25T03:17:28;8.77;;;3.40;;
2928;SDS011;1474;51.460;7.150;2023-04-25T03:19:54;7.43;;;3.10;;
2928;SDS011;1474;51.460;7.150;2023-04-25T03:22:20;7.38;;;3.08;;
2928;SDS011;1474;51.460;7.150;2023-04-25T03:24:46;6.95;;;3.78;;
2928;SDS011;1474;51.460;7.150;2023-04-25T03:27:12;5.25;;;3.47;;
2928;SDS011;1474;51.460;7.150;2023-04-25T03:29:38;7.68;;;3.15;;
2928;SDS011;1474;51.460;7.150;2023-04-25T03:32:04;6.47;;;3.58;;
2928;SDS011;1474;51.460;7.150;2023-04-25T03:34:29;5.53;;;2.90;;
2928;SDS011;1474;51.460;7.150;2023-04-25T03:36:55;9.93;;;3.13;;
2928;SDS011;1474;51.460;7.150;2023-04-25T03:39:21;7.00;;;3.40;;
2928;SDS011;1474;51.460;7.150;2023-04-25T03:41:46;9.43;;;3.42;;
2928;SDS011;1474;51.460;7.150;2023-04-25T03:44:12;7.78;;;3.97;;
2928;SDS011;1474;51.460;7.150;2023-04-25T03:46:38;4.95;;;2.85;;
2928;SDS011;1474;51.460;7.150;2023-04-25T03:49:03;5.82;;;3.17;;
2928;SDS011;1474;51.460;7.150;2023-04-25T03:51:29;5.88;;;3.28;;
2928;SDS011;1474;51.460;7.150;2023-04-25T03:53:55;7.00;;;3.38;;
2928;SDS011;1474;51.460;7.150;2023-04-25T03:56:21;8.60;;;3.30;;
2928;SDS011;1474;51.460;7.150;2023-04-25T03:58:47;5.57;;;2.95;;
2928;SDS011;1474;51.460;7.150;2023-04-25T04:01:12;6.15;;;3.28;;
2928;SDS011;1474;51.460;7.150;2023-04-25T04:03:38;6.93;;;4.60;;
2928;SDS011;1474;51.460;7.150;2023-04-25T04:06:04;9.27;;;3.63;;
2928;SDS011;1474;51.460;7.150;2023-04-25T04:08:31;9.77;;;3.83;;
2928;SDS011;1474;51.460;7.150;2023-04-25T04:10:57;6.03;;;2.60;;
2928;SDS011;1474;51.460;7.150;2023-04-25T04:13:25;11.77;;;4.15;;
2928;SDS011;1474;51.460;7.150;2023-04-25T04:15:51;15.30;;;4.70;;
2928;SDS011;1474;51.460;7.150;2023-04-25T04:18:17;11.43;;;3.63;;
2928;SDS011;1474;51.460;7.150;2023-04-25T04:20:43;7.15;;;2.15;;
2928;SDS011;1474;51.460;7.150;2023-04-25T04:23:08;4.75;;;1.98;;
2928;SDS011;1474;51.460;7.150;2023-04-25T04:25:34;6.03;;;2.10;;
2928;SDS011;1474;51.460;7.150;2023-04-25T04:28:03;2.63;;;1.35;;
2928;SDS011;1474;51.460;7.150;2023-04-25T04:30:29;1.70;;;1.50;;
2928;SDS011;1474;51.460;7.150;2023-04-25T04:32:56;9.80;;;2.40;;
2928;SDS011;1474;51.460;7.150;2023-04-25T04:35:22;4.88;;;2.13;;
2928;SDS011;1474;51.460;7.150;2023-04-25T04:37:48;1.63;;;1.27;;
2928;SDS011;1474;51.460;7.150;2023-04-25T04:40:14;5.47;;;2.15;;
2928;SDS011;1474;51.460;7.150;2023-04-25T04:42:41;3.42;;;1.55;;
2928;SDS011;1474;51.460;7.150;2023-04-25T04:45:07;8.60;;;2.85;;
2928;SDS011;1474;51.460;7.150;2023-04-25T04:47:34;6.68;;;2.80;;
2928;SDS011;1474;51.460;7.150;2023-04-25T04:50:02;4.65;;;2.30;;
2928;SDS011;1474;51.460;7.150;2023-04-25T04:52:29;5.57;;;3.00;;
2928;SDS011;1474;51.460;7.150;2023-04-25T04:54:54;10.82;;;2.35;;
2928;SDS011;1474;51.460;7.150;2023-04-25T04:57:20;3.10;;;1.30;;
2928;SDS011;1474;51.460;7.150;2023-04-25T04:59:46;5.43;;;2.35;;
2928;SDS011;1474;51.460;7.150;2023-04-25T05:02:11;4.90;;;1.85;;
2928;SDS011;1474;51.460;7.150;2023-04-25T05:04:37;3.47;;;1.48;;
2928;SDS011;1474;51.460;7.150;2023-04-25T05:07:03;5.32;;;2.28;;
2928;SDS011;1474;51.460;7.150;2023-04-25T05:09:28;6.88;;;1.60;;
2928;SDS011;1474;51.460;7.150;2023-04-25T05:11:54;3.60;;;1.80;;
2928;SDS011;1474;51.460;7.150;2023-04-25T05:14:20;2.85;;;2.00;;
2928;SDS011;1474;51.460;7.150;2023-04-25T05:16:46;2.95;;;1.60;;
2928;SDS011;1474;51.460;7.150;2023-04-25T05:19:12;11.85;;;2.42;;
2928;SDS011;1474;51.460;7.150;2023-04-25T05:21:38;5.88;;;2.67;;
2928;SDS011;1474;51.460;7.150;2023-04-25T05:24:03;5.25;;;2.95;;
2928;SDS011;1474;51.460;7.150;2023-04-25T05:26:29;4.72;;;2.38;;
2928;SDS011;1474;51.460;7.150;2023-04-25T05:28:56;4.22;;;2.53;;
2928;SDS011;1474;51.460;7.150;2023-04-25T05:31:22;5.00;;;2.75;;
2928;SDS011;1474;51.460;7.150;2023-04-25T05:33:48;10.48;;;3.90;;
2928;SDS011;1474;51.460;7.150;2023-04-25T05:36:14;13.40;;;4.00;;
2928;SDS011;1474;51.460;7.150;2023-04-25T05:38:39;10.32;;;4.25;;
2928;SDS011;1474;51.460;7.150;2023-04-25T05:41:05;10.57;;;4.28;;
2928;SDS011;1474;51.460;7.150;2023-04-25T05:43:31;9.00;;;4.82;;
2928;SDS011;1474;51.460;7.150;2023-04-25T05:45:56;17.23;;;4.85;;
2928;SDS011;1474;51.460;7.150;2023-04-25T05:48:25;9.73;;;4.13;;
2928;SDS011;1474;51.460;7.150;2023-04-25T05:50:50;9.55;;;4.10;;
2928;SDS011;1474;51.460;7.150;2023-04-25T05:53:16;25.95;;;4.72;;
2928;SDS011;1474;51.460;7.150;2023-04-25T05:55:42;8.75;;;4.53;;
2928;SDS011;1474;51.460;7.150;2023-04-25T05:58:08;9.82;;;3.78;;
2928;SDS011;1474;51.460;7.150;2023-04-25T06:00:34;9.57;;;3.83;;
2928;SDS011;1474;51.460;7.150;2023-04-25T06:02:59;7.18;;;3.67;;
2928;SDS011;1474;51.460;7.150;2023-04-25T06:05:25;10.20;;;3.38;;
2928;SDS011;1474;51.460;7.150;2023-04-25T06:07:52;7.47;;;3.50;;
2928;SDS011;1474;51.460;7.150;2023-04-25T06:10:17;12.95;;;4.15;;
2928;SDS011;1474;51.460;7.150;2023-04-25T06:12:43;13.77;;;3.53;;
2928;SDS011;1474;51.460;7.150;2023-04-25T06:15:09;9.07;;;4.40;;
2928;SDS011;1474;51.460;7.150;2023-04-25T06:17:35;8.13;;;3.75;;
2928;SDS011;1474;51.460;7.150;2023-04-25T06:20:01;6.05;;;2.88;;
2928;SDS011;1474;51.460;7.150;2023-04-25T06:22:28;7.85;;;2.85;;
2928;SDS011;1474;51.460;7.150;2023-04-25T06:24:54;12.02;;;4.07;;
2928;SDS011;1474;51.460;7.150;2023-04-25T06:27:22;9.25;;;2.95;;
2928;SDS011;1474;51.460;7.150;2023-04-25T06:29:47;11.45;;;3.28;;
2928;SDS011;1474;51.460;7.150;2023-04-25T06:32:13;12.30;;;3.10;;
2928;SDS011;1474;51.460;7.150;2023-04-25T06:34:39;20.15;;;3.97;;
2928;SDS011;1474;51.460;7.150;2023-04-25T06:37:04;8.35;;;3.70;;
2928;SDS011;1474;51.460;7.150;2023-04-25T06:39:30;15.40;;;3.88;;
2928;SDS011;1474;51.460;7.150;2023-04-25T06:41:56;8.88;;;3.30;;
2928;SDS011;1474;51.460;7.150;2023-04-25T06:44:21;5.80;;;3.10;;
2928;SDS011;1474;51.460;7.150;2023-04-25T06:46:49;9.13;;;2.92;;
2928;SDS011;1474;51.460;7.150;2023-04-25T06:49:14;13.73;;;3.15;;
2928;SDS011;1474;51.460;7.150;2023-04-25T06:51:40;6.05;;;3.08;;
2928;SDS011;1474;51.460;7.150;2023-04-25T06:54:06;5.18;;;2.45;;
2928;SDS011;1474;51.460;7.150;2023-04-25T06:56:31;4.57;;;2.92;;
2928;SDS011;1474;51.460;7.150;2023-04-25T06:58:57;13.20;;;3.72;;
2928;SDS011;1474;51.460;7.150;2023-04-25T07:01:23;4.53;;;2.80;;
2928;SDS011;1474;51.460;7.150;2023-04-25T07:03:49;6.88;;;2.90;;
2928;SDS011;1474;51.460;7.150;2023-04-25T07:06:14;8.27;;;4.50;;
2928;SDS011;1474;51.460;7.150;2023-04-25T07:08:40;8.90;;;3.25;;
2928;SDS011;1474;51.460;7.150;2023-04-25T07:11:06;4.55;;;2.30;;
2928;SDS011;1474;51.460;7.150;2023-04-25T07:13:31;8.77;;;2.30;;
2928;SDS011;1474;51.460;7.150;2023-04-25T07:15:57;7.25;;;2.72;;
2928;SDS011;1474;51.460;7.150;2023-04-25T07:18:22;4.65;;;1.17;;
2928;SDS011;1474;51.460;7.150;2023-04-25T07:20:48;5.53;;;2.10;;
2928;SDS011;1474;51.460;7.150;2023-04-25T07:23:14;4.65;;;1.60;;
2928;SDS011;1474;51.460;7.150;2023-04-25T07:25:39;1.63;;;1.33;;
2928;SDS011;1474;51.460;7.150;2023-04-25T07:28:05;2.95;;;1.40;;
2928;SDS011;1474;51.460;7.150;2023-04-25T07:30:30;4.78;;;1.35;;
2928;SDS011;1474;51.460;7.150;2023-04-25T07:32:56;8.20;;;1.27;;
2928;SDS011;1474;51.460;7.150;2023-04-25T07:35:22;2.58;;;1.40;;
2928;SDS011;1474;51.460;7.150;2023-04-25T07:37:47;3.20;;;1.48;;
2928;SDS011;1474;51.460;7.150;2023-04-25T07:40:13;2.85;;;1.20;;
2928;SDS011;1474;51.460;7.150;2023-04-25T07:42:41;4.30;;;1.60;;
2928;SDS011;1474;51.460;7.150;2023-04-25T07:45:07;6.63;;;1.60;;
2928;SDS011;1474;51.460;7.150;2023-04-25T07:47:34;4.25;;;1.35;;
2928;SDS011;1474;51.460;7.150;2023-04-25T07:50:00;4.13;;;1.70;;
2928;SDS011;1474;51.460;7.150;2023-04-25T07:52:25;4.18;;;1.33;;
2928;SDS011;1474;51.460;7.150;2023-04-25T07:54:51;8.35;;;2.35;;
2928;SDS011;1474;51.460;7.150;2023-04-25T07:57:17;4.50;;;1.30;;
2928;SDS011;1474;51.460;7.150;2023-04-25T07:59:43;4.45;;;1.48;;
2928;SDS011;1474;51.460;7.150;2023-04-25T08:02:09;8.20;;;2.22;;
2928;SDS011;1474;51.460;7.150;2023-04-25T08:04:34;5.15;;;2.03;;
2928;SDS011;1474;51.460;7.150;2023-04-25T08:07:00;5.20;;;1.90;;
2928;SDS011;1474;51.460;7.150;2023-04-25T08:09:26;4.25;;;1.88;;
2928;SDS011;1474;51.460;7.150;2023-04-25T08:11:51;5.65;;;1.77;;
2928;SDS011;1474;51.460;7.150;2023-04-25T08:14:17;5.75;;;1.60;;
2928;SDS011;1474;51.460;7.150;2023-04-25T08:16:43;7.60;;;1.90;;
2928;SDS011;1474;51.460;7.150;2023-04-25T08:19:09;6.03;;;2.13;;
2928;SDS011;1474;51.460;7.150;2023-04-25T08:21:39;9.40;;;2.60;;
2928;SDS011;1474;51.460;7.150;2023-04-25T08:24:04;4.35;;;2.20;;
2928;SDS011;1474;51.460;7.150;2023-04-25T08:26:30;11.73;;;3.50;;
2928;SDS011;1474;51.460;7.150;2023-04-25T08:28:57;3.63;;;1.70;;
2928;SDS011;1474;51.460;7.150;2023-04-25T08:31:25;5.80;;;1.90;;
2928;SDS011;1474;51.460;7.150;2023-04-25T08:33:51;4.90;;;1.23;;
2928;SDS011;1474;51.460;7.150;2023-04-25T08:36:17;4.75;;;1.70;;
2928;SDS011;1474;51.460;7.150;2023-04-25T08:38:43;5.47;;;2.17;;
2928;SDS011;1474;51.460;7.150;2023-04-25T08:41:09;4.35;;;1.55;;
2928;SDS011;1474;51.460;7.150;2023-04-25T08:43:36;2.00;;;0.82;;
2928;SDS011;1474;51.460;7.150;2023-04-25T08:46:06;8.95;;;1.58;;
2928;SDS011;1474;51.460;7.150;2023-04-25T08:48:33;2.75;;;1.10;;
2928;SDS011;1474;51.460;7.150;2023-04-25T08:51:00;3.58;;;1.30;;
2928;SDS011;1474;51.460;7.150;2023-04-25T08:53:29;7.13;;;1.48;;
2928;SDS011;1474;51.460;7.150;2023-04-25T08:56:00;2.60;;;1.15;;
2928;SDS011;1474;51.460;7.150;2023-04-25T08:58:29;3.97;;;1.48;;
2928;SDS011;1474;51.460;7.150;2023-04-25T09:00:55;4.38;;;1.10;;
2928;SDS011;1474;51.460;7.150;2023-04-25T09:03:21;7.55;;;1.13;;
2928;SDS011;1474;51.460;7.150;2023-04-25T09:05:47;2.80;;;1.23;;
2928;SDS011;1474;51.460;7.150;2023-04-25T09:08:14;5.05;;;1.40;;
2928;SDS011;1474;51.460;7.150;2023-04-25T09:10:40;3.05;;;1.10;;
2928;SDS011;1474;51.460;7.150;2023-04-25T09:13:09;1.65;;;0.90;;
2928;SDS011;1474;51.460;7.150;2023-04-25T09:15:52;7.32;;;1.35;;
2928;SDS011;1474;51.460;7.150;2023-04-25T09:18:23;3.17;;;1.02;;
2928;SDS011;1474;51.460;7.150;2023-04-25T09:23:45;5.53;;;1.00;;
2928;SDS011;1474;51.460;7.150;2023-04-25T09:26:18;3.53;;;1.20;;
2928;SDS011;1474;51.460;7.150;2023-04-25T09:28:45;3.20;;;1.00;;
2928;SDS011;1474;51.460;7.150;2023-04-25T09:31:20;5.28;;;1.20;;
2928;SDS011;1474;51.460;7.150;2023-04-25T09:33:50;6.97;;;1.20;;
2928;SDS011;1474;51.460;7.150;2023-04-25T09:36:23;3.05;;;1.00;;
2928;SDS011;1474;51.460;7.150;2023-04-25T09:38:52;3.55;;;1.23;;
2928;SDS011;1474;51.460;7.150;2023-04-25T09:41:22;5.43;;;1.15;;
2928;SDS011;1474;51.460;7.150;2023-04-25T09:43:49;2.47;;;0.90;;
2928;SDS011;1474;51.460;7.150;2023-04-25T09:46:15;2.45;;;1.08;;
2928;SDS011;1474;51.460;7.150;2023-04-25T09:48:47;4.43;;;1.35;;
2928;SDS011;1474;51.460;7.150;2023-04-25T09:51:15;2.75;;;0.88;;
2928;SDS011;1474;51.460;7.150;2023-04-25T09:53:41;3.05;;;1.00;;
2928;SDS011;1474;51.460;7.150;2023-04-25T09:56:09;4.82;;;1.30;;
2928;SDS011;1474;51.460;7.150;2023-04-25T09:58:36;3.28;;;0.85;;
2928;SDS011;1474;51.460;7.150;2023-04-25T10:01:04;2.78;;;1.08;;
2928;SDS011;1474;51.460;7.150;2023-04-25T10:06:01;3.67;;;0.90;;
2928;SDS011;1474;51.460;7.150;2023-04-25T10:08:32;1.63;;;1.05;;
2928;SDS011;1474;51.460;7.150;2023-04-25T10:11:03;2.05;;;0.55;;
2928;SDS011;1474;51.460;7.150;2023-04-25T10:13:30;1.63;;;0.90;;
2928;SDS011;1474;51.460;7.150;2023-04-25T10:16:00;1.58;;;0.80;;
2928;SDS011;1474;51.460;7.150;2023-04-25T10:18:28;2.90;;;1.42;;
2928;SDS011;1474;51.460;7.150;2023-04-25T10:20:55;2.03;;;0.68;;
2928;SDS011;1474;51.460;7.150;2023-04-25T10:23:23;1.92;;;0.85;;
2928;SDS011;1474;51.460;7.150;2023-04-25T10:25:49;4.30;;;0.73;;
2928;SDS011;1474;51.460;7.150;2023-04-25T10:28:16;2.10;;;1.05;;
2928;SDS011;1474;51.460;7.150;2023-04-25T10:33:34;2.28;;;0.70;;
2928;SDS011;1474;51.460;7.150;2023-04-25T10:36:11;2.83;;;0.80;;
2928;SDS011;1474;51.460;7.150;2023-04-25T10:38:38;2.20;;;0.47;;
2928;SDS011;1474;51.460;7.150;2023-04-25T10:41:08;1.83;;;0.85;;
2928;SDS011;1474;51.460;7.150;2023-04-25T10:43:35;3.78;;;0.70;;
2928;SDS011;1474;51.460;7.150;2023-04-25T10:46:18;2.75;;;0.75;;
2928;SDS011;1474;51.460;7.150;2023-04-25T10:48:48;3.65;;;0.70;;
2928;SDS011;1474;51.460;7.150;2023-04-25T10:51:25;5.63;;;1.35;;
2928;SDS011;1474;51.460;7.150;2023-04-25T10:56:33;2.65;;;0.82;;
2928;SDS011;1474;51.460;7.150;2023-04-25T11:01:35;1.10;;;0.60;;
2928;SDS011;1474;51.460;7.150;2023-04-25T11:04:30;2.53;;;0.93;;
2928;SDS011;1474;51.460;7.150;2023-04-25T11:09:35;2.80;;;0.95;;
2928;SDS011;1474;51.460;7.150;2023-04-25T11:12:03;1.27;;;0.68;;
2928;SDS011;1474;51.460;7.150;2023-04-25T11:14:30;2.47;;;0.65;;
2928;SDS011;1474;51.460;7.150;2023-04-25T11:16:58;4.82;;;1.23;;
2928;SDS011;1474;51.460;7.150;2023-04-25T11:19:26;5.25;;;0.85;;
2928;SDS011;1474;51.460;7.150;2023-04-25T11:21:56;3.17;;;1.00;;
2928;SDS011;1474;51.460;7.150;2023-04-25T11:24:29;3.53;;;0.77;;
2928;SDS011;1474;51.460;7.150;2023-04-25T11:27:00;4.30;;;1.30;;
2928;SDS011;1474;51.460;7.150;2023-04-25T11:29:30;3.42;;;0.90;;
2928;SDS011;1474;51.460;7.150;2023-04-25T11:31:56;2.47;;;1.05;;
2928;SDS011;1474;51.460;7.150;2023-04-25T11:34:26;4.10;;;1.45;;
2928;SDS011;1474;51.460;7.150;2023-04-25T11:36:55;4.38;;;1.20;;
2928;SDS011;1474;51.460;7.150;2023-04-25T11:39:23;3.45;;;0.98;;
2928;SDS011;1474;51.460;7.150;2023-04-25T11:41:49;4.15;;;1.10;;
2928;SDS011;1474;51.460;7.150;2023-04-25T11:44:15;4.55;;;1.00;;
2928;SDS011;1474;51.460;7.150;2023-04-25T11:46:42;3.38;;;1.05;;
2928;SDS011;1474;51.460;7.150;2023-04-25T11:49:08;3.47;;;1.08;;
2928;SDS011;1474;51.460;7.150;2023-04-25T11:51:43;2.85;;;1.08;;
2928;SDS011;1474;51.460;7.150;2023-04-25T11:54:10;1.80;;;0.70;;
2928;SDS011;1474;51.460;7.150;2023-04-25T11:56:36;2.90;;;0.70;;
2928;SDS011;1474;51.460;7.150;2023-04-25T11:59:03;2.17;;;0.90;;
2928;SDS011;1474;51.460;7.150;2023-04-25T12:01:34;2.58;;;0.98;;
2928;SDS011;1474;51.460;7.150;2023-04-25T12:04:10;1.15;;;0.63;;
2928;SDS011;1474;51.460;7.150;2023-04-25T12:06:38;2.00;;;0.77;;
2928;SDS011;1474;51.460;7.150;2023-04-25T12:09:06;6.30;;;1.08;;
2928;SDS011;1474;51.460;7.150;2023-04-25T12:11:40;4.50;;;0.93;;
2928;SDS011;1474;51.460;7.150;2023-04-25T12:14:10;0.52;;;0.47;;
2928;SDS011;1474;51.460;7.150;2023-04-25T12:16:40;1.48;;;0.47;;
2928;SDS011;1474;51.460;7.150;2023-04-25T12:19:15;2.28;;;0.75;;
2928;SDS011;1474;51.460;7.150;2023-04-25T12:21:41;1.08;;;0.70;;
2928;SDS011;1474;51.460;7.150;2023-04-25T12:24:09;2.35;;;0.68;;
2928;SDS011;1474;51.460;7.150;2023-04-25T12:26:45;0.75;;;0.50;;
2928;SDS011;1474;51.460;7.150;2023-04-25T12:29:28;3.53;;;0.70;;
2928;SDS011;1474;51.460;7.150;2023-04-25T12:31:55;3.17;;;0.80;;
2928;SDS011;1474;51.460;7.150;2023-04-25T12:34:22;3.08;;;0.82;;
2928;SDS011;1474;51.460;7.150;2023-04-25T12:36:48;1.30;;;0.75;;
2928;SDS011;1474;51.460;7.150;2023-04-25T12:39:16;1.65;;;0.65;;
2928;SDS011;1474;51.460;7.150;2023-04-25T12:41:43;2.03;;;0.98;;
2928;SDS011;1474;51.460;7.150;2023-04-25T12:44:09;0.80;;;0.80;;
2928;SDS011;1474;51.460;7.150;2023-04-25T12:46:35;2.20;;;1.05;;
2928;SDS011;1474;51.460;7.150;2023-04-25T12:49:01;2.15;;;0.77;;
2928;SDS011;1474;51.460;7.150;2023-04-25T12:51:28;3.47;;;0.73;;
2928;SDS011;1474;51.460;7.150;2023-04-25T12:53:54;5.53;;;1.02;;
2928;SDS011;1474;51.460;7.150;2023-04-25T12:56:20;4.28;;;1.58;;
2928;SDS011;1474;51.460;7.150;2023-04-25T12:58:45;2.05;;;0.60;;
2928;SDS011;1474;51.460;7.150;2023-04-25T13:01:12;2.05;;;0.60;;
2928;SDS011;1474;51.460;7.150;2023-04-25T13:03:39;4.40;;;0.90;;
2928;SDS011;1474;51.460;7.150;2023-04-25T13:06:05;2.90;;;0.80;;
2928;SDS011;1474;51.460;7.150;2023-04-25T13:08:32;1.88;;;0.73;;
2928;SDS011;1474;51.460;7.150;2023-04-25T13:10:57;1.73;;;0.63;;
2928;SDS011;1474;51.460;7.150;2023-04-25T13:13:23;2.67;;;0.70;;
2928;SDS011;1474;51.460;7.150;2023-04-25T13:15:48;0.55;;;0.40;;
2928;SDS011;1474;51.460;7.150;2023-04-25T13:18:14;2.20;;;0.65;;
2928;SDS011;1474;51.460;7.150;2023-04-25T13:20:40;1.23;;;0.80;;
2928;SDS011;1474;51.460;7.150;2023-04-25T13:23:06;0.80;;;0.52;;
2928;SDS011;1474;51.460;7.150;2023-04-25T13:25:32;2.15;;;0.77;;
2928;SDS011;1474;51.460;7.150;2023-04-25T13:27:58;2.53;;;0.50;;
2928;SDS011;1474;51.460;7.150;2023-04-25T13:30:23;0.90;;;0.60;;
2928;SDS011;1474;51.460;7.150;2023-04-25T13:32:49;2.50;;;0.68;;
2928;SDS011;1474;51.460;7.150;2023-04-25T13:35:14;2.33;;;0.60;;
2928;SDS011;1474;51.460;7.150;2023-04-25T13:37:41;4.85;;;1.52;;
2928;SDS011;1474;51.460;7.150;2023-04-25T13:40:08;3.38;;;0.80;;
2928;SDS011;1474;51.460;7.150;2023-04-25T13:42:36;2.88;;;1.10;;
2928;SDS011;1474;51.460;7.150;2023-04-25T13:45:03;1.95;;;0.98;;
2928;SDS011;1474;51.460;7.150;2023-04-25T13:47:29;3.17;;;1.27;;
2928;SDS011;1474;51.460;7.150;2023-04-25T13:49:56;2.25;;;0.60;;
2928;SDS011;1474;51.460;7.150;2023-04-25T13:52:22;1.80;;;0.65;;
2928;SDS011;1474;51.460;7.150;2023-04-25T13:54:49;1.50;;;0.77;;
2928;SDS011;1474;51.460;7.150;2023-04-25T13:57:16;0.80;;;0.68;;
2928;SDS011;1474;51.460;7.150;2023-04-25T13:59:42;1.77;;;0.60;;
2928;SDS011;1474;51.460;7.150;2023-04-25T14:02:08;3.75;;;0.65;;
2928;SDS011;1474;51.460;7.150;2023-04-25T14:04:34;1.25;;;0.40;;
2928;SDS011;1474;51.460;7.150;2023-04-25T14:06:59;3.78;;;0.80;;
2928;SDS011;1474;51.460;7.150;2023-04-25T14:09:27;1.30;;;0.50;;
2928;SDS011;1474;51.460;7.150;2023-04-25T14:11:53;1.92;;;1.15;;
2928;SDS011;1474;51.460;7.150;2023-04-25T14:14:19;3.90;;;1.08;;
2928;SDS011;1474;51.460;7.150;2023-04-25T14:16:45;0.68;;;0.38;;
2928;SDS011;1474;51.460;7.150;2023-04-25T14:19:13;1.90;;;0.70;;
2928;SDS011;1474;51.460;7.150;2023-04-25T14:21:48;1.80;;;0.60;;
2928;SDS011;1474;51.460;7.150;2023-04-25T14:24:14;2.50;;;0.70;;
2928;SDS011;1474;51.460;7.150;2023-04-25T14:26:40;4.15;;;0.68;;
2928;SDS011;1474;51.460;7.150;2023-04-25T14:29:07;4.70;;;0.77;;
2928;SDS011;1474;51.460;7.150;2023-04-25T14:31:33;1.90;;;0.80;;
2928;SDS011;1474;51.460;7.150;2023-04-25T14:34:00;4.43;;;0.93;;
2928;SDS011;1474;51.460;7.150;2023-04-25T14:36:29;1.85;;;0.80;;
2928;SDS011;1474;51.460;7.150;2023-04-25T14:38:56;1.52;;;0.68;;
2928;SDS011;1474;51.460;7.150;2023-04-25T14:41:22;1.38;;;0.40;;
2928;SDS011;1474;51.460;7.150;2023-04-25T14:43:48;2.60;;;0.60;;
2928;SDS011;1474;51.460;7.150;2023-04-25T14:46:13;4.85;;;0.68;;
2928;SDS011;1474;51.460;7.150;2023-04-25T14:48:39;0.82;;;0.30;;
2928;SDS011;1474;51.460;7.150;2023-04-25T14:51:05;0.73;;;0.57;;
2928;SDS011;1474;51.460;7.150;2023-04-25T14:53:31;2.72;;;0.68;;
2928;SDS011;1474;51.460;7.150;2023-04-25T14:55:57;1.88;;;0.38;;
2928;SDS011;1474;51.460;7.150;2023-04-25T14:58:23;1.00;;;0.40;;
2928;SDS011;1474;51.460;7.150;2023-04-25T15:00:48;1.38;;;0.40;;
2928;SDS011;1474;51.460;7.150;2023-04-25T15:03:15;3.22;;;0.60;;
2928;SDS011;1474;51.460;7.150;2023-04-25T15:05:42;1.15;;;0.60;;
2928;SDS011;1474;51.460;7.150;2023-04-25T15:08:08;0.75;;;0.43;;
2928;SDS011;1474;51.460;7.150;2023-04-25T15:10:35;1.25;;;0.60;;
2928;SDS011;1474;51.460;7.150;2023-04-25T15:13:01;2.28;;;0.80;;
2928;SDS011;1474;51.460;7.150;2023-04-25T15:15:27;5.15;;;0.77;;
2928;SDS011;1474;51.460;7.150;2023-04-25T15:17:53;1.25;;;0.52;;
2928;SDS011;1474;51.460;7.150;2023-04-25T15:20:20;2.17;;;0.52;;
2928;SDS011;1474;51.460;7.150;2023-04-25T15:22:46;1.92;;;0.77;;
2928;SDS011;1474;51.460;7.150;2023-04-25T15:25:14;1.55;;;0.75;;
2928;SDS011;1474;51.460;7.150;2023-04-25T15:27:42;3.10;;;0.60;;
2928;SDS011;1474;51.460;7.150;2023-04-25T15:30:12;5.65;;;0.70;;
2928;SDS011;1474;51.460;7.150;2023-04-25T15:32:40;1.88;;;0.60;;